LFMN

Nice-Côte d'Azur Airport

Nice, France
TAF LFMN 230800Z 2309/2415 VRB02KT 9999 SCT020 TEMPO 2320/2409 09010KT 4000 BR OVC011 PROB30 TEMPO 2320/2409 0800 BCFG VV///
Issued Valid From Valid To
Apr-23 @ 08:00 UTC
(an hour ago)
Apr-23 @ 09:00 UTC
(25 minutes ago)
Apr-24 @ 15:00 UTC
(-1 days ago)
Apr-23 @ 09:00 to Apr-24 @ 15:00
TAF LFMN 230800Z 2309/2415 VRB02KT 9999 SCT020
Wind Visibility Clouds
Variable at 2 knots 10,000+ meters
  • Scattered at 2,000' AGL
Temporary  (Probability 30%) Apr-23 @ 20:00 to Apr-24 @ 09:00
PROB30 TEMPO 2320/2409 0800 BCFG VV///
Visibility Conditions
805 meters
  • Patches of
  • Fog
Temporary Apr-23 @ 20:00 to Apr-24 @ 09:00
TEMPO 2320/2409 09010KT 4000 BR OVC011
Wind Visibility Clouds Conditions
90° at 10 knots 4,007 meters
  • Overcast at 1,100' AGL
  • Mist
TAF LFMN 230800Z 2309/2415 VRB02KT 9999 SCT020 TEMPO 2320/2409 09010KT 4000 BR OVC011 PROB30 TEMPO 2320/2409 0800 BCFG VV///
Issued Apr-23 @ 08:00 UTC
(an hour ago)
Valid From Apr-23 @ 09:00 UTC
(25 minutes ago)
Valid To Apr-24 @ 15:00 UTC
(-1 days ago)
Apr-23 @ 09:00 - Apr-24 @ 15:00
Wind Visibility
Variable at 2 knots 10,000+ meters
Clouds
  • Scattered at 2,000' AGL
Probability 30% Temporary Apr-23 @ 20:00 - Apr-24 @ 09:00
Conditions
  • Patches of
  • Fog
Temporary Apr-23 @ 20:00 - Apr-24 @ 09:00
Wind Visibility
90° at 10 knots 4,007 meters
Clouds
  • Overcast at 1,100' AGL
Conditions
  • Mist